createdAt,value
2017-06-22T00:01:03.428Z,16.00
2017-06-22T00:03:31.821Z,15.80
2017-06-22T00:06:00.072Z,15.80
2017-06-22T00:08:28.549Z,15.90
2017-06-22T00:10:56.199Z,15.90
2017-06-22T00:13:24.037Z,15.90
2017-06-22T00:15:52.858Z,16.10
2017-06-22T00:18:20.434Z,16.10
2017-06-22T00:20:49.344Z,16.20
2017-06-22T00:23:16.973Z,16.30
2017-06-22T00:25:45.300Z,16.40
2017-06-22T00:28:13.408Z,16.40
2017-06-22T00:30:41.062Z,16.30
2017-06-22T00:33:08.701Z,16.30
2017-06-22T00:35:37.666Z,16.20
2017-06-22T00:38:05.328Z,16.10
2017-06-22T00:40:32.948Z,16.10
2017-06-22T00:43:00.624Z,16.10
2017-06-22T00:45:28.758Z,16.10
2017-06-22T00:47:57.146Z,16.00
2017-06-22T00:50:25.084Z,16.00
2017-06-22T00:52:53.416Z,16.00
2017-06-22T00:55:21.023Z,15.90
2017-06-22T00:57:49.690Z,16.00
2017-06-22T01:00:17.300Z,15.90
2017-06-22T01:02:44.908Z,16.00
2017-06-22T01:05:12.989Z,16.00
2017-06-22T01:07:41.336Z,15.90
2017-06-22T01:10:08.934Z,15.80
2017-06-22T01:12:37.856Z,15.80
2017-06-22T01:15:05.496Z,15.70
2017-06-22T01:17:34.367Z,15.60
2017-06-22T01:20:02.223Z,15.60
2017-06-22T01:22:29.859Z,15.50
2017-06-22T01:24:57.604Z,15.40
2017-06-22T01:27:25.544Z,15.40
2017-06-22T01:29:53.174Z,15.30
2017-06-22T01:32:20.764Z,15.40
2017-06-22T01:34:49.078Z,15.30
2017-06-22T01:37:16.696Z,15.40
2017-06-22T01:39:45.047Z,15.30
2017-06-22T01:42:13.141Z,15.30
2017-06-22T01:44:40.866Z,15.20
2017-06-22T01:47:09.368Z,15.30
2017-06-22T01:49:38.032Z,15.30
2017-06-22T01:52:05.772Z,15.40
2017-06-22T01:54:33.401Z,15.30
2017-06-22T01:57:01.248Z,15.30
2017-06-22T01:59:29.702Z,15.20
2017-06-22T02:01:57.362Z,15.20
2017-06-22T02:04:25.938Z,15.10
2017-06-22T02:06:54.263Z,15.10
2017-06-22T02:09:21.854Z,15.10
2017-06-22T02:11:49.687Z,15.10
2017-06-22T02:14:17.248Z,15.10
2017-06-22T02:16:44.856Z,15.00
2017-06-22T02:19:14.415Z,14.90
2017-06-22T02:21:42.011Z,14.80
2017-06-22T02:24:09.737Z,14.80
2017-06-22T02:26:38.683Z,14.70
2017-06-22T02:29:06.381Z,14.70
2017-06-22T02:31:34.864Z,14.60
2017-06-22T02:34:03.515Z,14.50
2017-06-22T02:36:31.195Z,14.50
2017-06-22T02:38:58.910Z,14.50
2017-06-22T02:41:27.719Z,14.30
2017-06-22T02:43:55.309Z,14.30
2017-06-22T02:46:25.926Z,14.40
2017-06-22T02:48:53.557Z,14.50
2017-06-22T02:51:22.195Z,14.60
2017-06-22T02:53:49.822Z,14.60
2017-06-22T02:56:18.380Z,14.80
2017-06-22T02:58:46.717Z,14.80
2017-06-22T03:01:14.278Z,14.80
2017-06-22T03:03:42.903Z,14.80
2017-06-22T03:06:10.475Z,14.90
2017-06-22T03:08:38.137Z,14.90
2017-06-22T03:11:05.869Z,14.90
2017-06-22T03:13:34.520Z,14.90
2017-06-22T03:16:02.243Z,14.90
2017-06-22T03:18:31.156Z,15.00
2017-06-22T03:20:59.166Z,15.00
2017-06-22T03:23:26.792Z,15.10
2017-06-22T03:25:55.477Z,15.10
2017-06-22T03:28:23.089Z,15.10
2017-06-22T03:30:50.648Z,15.10
2017-06-22T03:33:19.253Z,15.10
2017-06-22T03:35:46.867Z,15.10
2017-06-22T03:38:15.209Z,15.00
2017-06-22T03:40:43.046Z,14.90
2017-06-22T03:43:10.661Z,14.90
2017-06-22T03:45:39.023Z,14.90
2017-06-22T03:48:07.341Z,15.00
2017-06-22T03:50:35.773Z,15.00
2017-06-22T03:53:03.381Z,15.00
2017-06-22T03:55:31.507Z,15.10
2017-06-22T03:57:59.111Z,15.10
2017-06-22T04:00:27.592Z,15.10
2017-06-22T04:02:56.024Z,15.20
2017-06-22T04:05:23.610Z,15.20
2017-06-22T04:07:51.176Z,15.10
2017-06-22T04:10:19.048Z,15.00
2017-06-22T04:12:46.666Z,15.10
2017-06-22T04:15:14.268Z,15.20
2017-06-22T04:17:43.330Z,15.10
2017-06-22T04:20:10.939Z,15.10
2017-06-22T04:22:40.214Z,15.00
2017-06-22T04:25:08.430Z,15.10
2017-06-22T04:27:36.068Z,15.20
2017-06-22T04:30:03.807Z,15.40
2017-06-22T04:32:31.587Z,15.40
2017-06-22T04:34:59.308Z,15.50
2017-06-22T04:37:26.949Z,15.60
2017-06-22T04:39:54.600Z,15.70
2017-06-22T04:42:22.262Z,15.60
2017-06-22T04:44:49.881Z,15.70
2017-06-22T04:47:18.053Z,15.80
2017-06-22T04:49:45.665Z,15.90
2017-06-22T04:52:13.229Z,16.00
2017-06-22T04:54:43.845Z,16.20
2017-06-22T04:57:11.409Z,16.20
2017-06-22T04:59:39.010Z,16.30
2017-06-22T05:02:07.019Z,16.40
2017-06-22T05:04:35.656Z,16.50
2017-06-22T05:07:04.074Z,16.40
2017-06-22T05:09:32.546Z,16.40
2017-06-22T05:12:00.420Z,16.60
2017-06-22T05:14:28.055Z,16.60
2017-06-22T05:16:55.677Z,16.70
2017-06-22T17:47:47.729Z,24.10
2017-06-22T17:50:15.346Z,23.90
2017-06-22T17:52:42.931Z,23.80
2017-06-22T17:55:11.787Z,23.70
2017-06-22T17:57:39.386Z,23.70
2017-06-22T18:00:07.200Z,23.50
2017-06-22T18:02:36.010Z,23.50
2017-06-22T18:05:03.653Z,23.40
2017-06-22T18:07:31.361Z,23.30
2017-06-22T18:09:59.354Z,23.20
2017-06-22T18:12:27.010Z,23.20
2017-06-22T18:14:54.599Z,23.10
2017-06-22T18:17:23.185Z,23.00
2017-06-22T18:19:50.864Z,22.90
2017-06-22T18:22:18.530Z,22.80
2017-06-22T18:24:46.598Z,22.80
2017-06-22T18:27:14.195Z,22.70
2017-06-22T18:29:42.848Z,22.70
2017-06-22T18:32:11.779Z,22.60
2017-06-22T18:34:39.368Z,22.50
2017-06-22T18:37:07.014Z,22.60
2017-06-22T18:39:35.078Z,22.60
2017-06-22T18:42:02.849Z,22.50
2017-06-22T18:44:30.997Z,22.50
2017-06-22T18:46:59.148Z,22.50
2017-06-22T18:49:26.993Z,22.40
2017-06-22T18:51:54.664Z,22.30
2017-06-22T18:54:22.825Z,22.30
2017-06-22T18:56:50.470Z,22.30
2017-06-22T18:59:18.104Z,22.30
2017-06-22T19:01:46.688Z,22.20
2017-06-22T19:04:14.280Z,22.20
2017-06-22T19:06:41.847Z,22.20
2017-06-22T19:09:09.745Z,22.10
2017-06-22T19:11:37.393Z,22.10
2017-06-22T19:14:05.042Z,22.00
2017-06-22T19:16:32.966Z,21.90
2017-06-22T19:19:00.711Z,21.90
2017-06-22T19:21:28.390Z,21.90
2017-06-22T19:23:56.740Z,21.80
2017-06-22T19:26:24.771Z,21.80
2017-06-22T19:28:52.400Z,21.70
2017-06-22T19:31:20.929Z,21.70
2017-06-22T19:33:48.534Z,21.60
2017-06-22T19:36:16.282Z,21.50
2017-06-22T19:38:45.273Z,21.50
2017-06-22T19:41:12.925Z,21.50
2017-06-22T19:43:40.642Z,21.40
2017-06-22T19:46:09.479Z,21.40
2017-06-22T19:48:37.295Z,21.40
2017-06-22T19:51:05.097Z,21.30
2017-06-22T19:53:32.869Z,21.30
2017-06-22T19:56:00.640Z,21.10
2017-06-22T19:58:29.216Z,21.00
2017-06-22T20:00:57.216Z,21.00
2017-06-22T20:03:25.595Z,20.90
2017-06-22T20:05:54.197Z,20.90
2017-06-22T20:08:22.135Z,20.80
2017-06-22T20:10:49.875Z,20.80
2017-06-22T20:13:18.244Z,20.80
2017-06-22T20:15:46.121Z,20.80
2017-06-22T20:18:13.716Z,20.80
2017-06-22T20:20:41.285Z,20.80
2017-06-22T20:23:09.843Z,20.80
2017-06-22T20:25:38.234Z,20.80
2017-06-22T20:28:05.895Z,20.70
2017-06-22T20:30:34.836Z,20.70
2017-06-22T20:33:02.622Z,20.70
2017-06-22T20:35:30.424Z,20.70
2017-06-22T20:37:59.466Z,20.60
2017-06-22T20:40:27.560Z,20.60
2017-06-22T20:42:55.895Z,20.70
2017-06-22T20:45:23.989Z,20.60
2017-06-22T20:47:51.609Z,20.70
2017-06-22T20:50:19.212Z,20.60
2017-06-22T20:52:47.016Z,20.60
2017-06-22T20:55:14.591Z,20.60
2017-06-22T20:57:42.226Z,20.60
2017-06-22T21:00:10.288Z,20.60
2017-06-22T21:02:38.101Z,20.60
2017-06-22T21:05:05.807Z,20.70
2017-06-22T21:07:33.894Z,20.70
2017-06-22T21:10:01.564Z,20.70
2017-06-22T21:12:29.290Z,20.60
2017-06-22T21:14:57.139Z,20.60
2017-06-22T21:17:24.696Z,20.60
2017-06-22T21:19:52.269Z,20.60
2017-06-22T21:22:20.723Z,20.60
2017-06-22T21:24:48.277Z,20.50
2017-06-22T21:27:16.614Z,20.40
2017-06-22T21:29:44.319Z,20.40
2017-06-22T21:32:11.952Z,20.40
2017-06-22T21:34:39.538Z,20.40
2017-06-22T21:37:08.265Z,20.40
2017-06-22T21:39:35.895Z,20.30
2017-06-22T21:42:04.317Z,20.30
2017-06-22T21:44:33.067Z,20.30
2017-06-22T21:47:00.720Z,20.30
2017-06-22T21:49:29.206Z,20.20
2017-06-22T21:51:57.117Z,20.20
2017-06-22T21:54:24.829Z,20.10
2017-06-22T21:56:52.395Z,20.00
2017-06-22T21:59:21.063Z,19.90
2017-06-22T22:01:49.424Z,19.80
2017-06-22T22:04:16.983Z,19.80
2017-06-22T22:06:45.235Z,19.70
2017-06-22T22:09:13.639Z,19.70
2017-06-22T22:11:41.211Z,19.60
2017-06-22T22:14:09.201Z,19.60
2017-06-22T22:16:37.923Z,19.60
2017-06-22T22:19:05.578Z,19.50
2017-06-22T22:21:34.110Z,19.50
2017-06-22T22:24:02.185Z,19.40
2017-06-22T22:26:29.793Z,19.40
2017-06-22T22:28:58.621Z,19.40
2017-06-22T22:31:26.188Z,19.40
2017-06-22T22:33:53.748Z,19.40
2017-06-22T22:36:22.084Z,19.40
2017-06-22T22:38:49.639Z,19.30
2017-06-22T22:41:17.215Z,19.30
2017-06-22T22:43:45.065Z,19.30
2017-06-22T22:46:12.659Z,19.30
2017-06-22T22:48:40.224Z,19.30
2017-06-22T22:51:09.583Z,19.20
2017-06-22T22:53:37.249Z,19.20
